Latest Weather Observations for Mount Crawford

IDS60901

Issued at 2:11 pm CDT Sunday 22 January 2017 (issued every 10 minutes, with the page automatically refreshed every 10 minutes)

About weather observations | Map of Adelaide area stations | Latest observations for Adelaide area | Other Formats
Station Details ID: 023878 Name: MOUNT CRAWFORD AWS Lat: -34.73 Lon: 138.93 Height: 525.0 m
Data from the previous 72 hours. | See also: Recent months at Mount Crawford
Date/Time
CDT
Temp
°C
App
Temp
°C
Dew
Point
°C
Rel
Hum
%
Delta-T
°C
Wind Press
QNH
hPa
Press
MSL
hPa
Rain since
9am
mm
Dir  Spd
km/h
Gust
km/h
Spd
kts
Gust
kts
22/02:00pm 28.7 25.0 6.1 24 12.2 N 15 20 8 11 1012.1 1009.8 0.0
22/01:30pm 27.9 23.9 4.9 23 12.1 NNE 15 24 8 13 1012.5 1010.2 0.0
22/01:00pm 26.9 23.1 5.8 26 11.2 NNE 15 24 8 13 1012.9 1010.7 0.0
22/12:30pm 27.4 23.4 6.8 27 11.2 N 17 26 9 14 1013.4 1011.1 0.0
22/12:00pm 26.1 21.5 6.7 29 10.4 N 20 28 11 15 1013.8 1011.5 0.0
22/11:30am 25.7 20.2 4.2 25 11.0 N 22 32 12 17 1014.0 1011.7 0.0
22/11:00am 25.5 20.6 6.7 30 10.1 NNE 22 33 12 18 1014.3 1012.0 0.0
22/10:30am 25.1 18.9 6.3 30 10.0 NNE 28 35 15 19 1014.3 1012.0 0.0
22/10:00am 24.2 21.0 9.8 40 8.1 ENE 17 24 9 13 1014.4 1012.2 0.0
22/09:30am 23.2 19.6 9.9 43 7.4 NE 19 24 10 13 1014.6 1012.4 0.0
22/09:00am 21.2 16.5 9.4 47 6.5 NE 24 30 13 16 1014.4 1012.2 0.2
22/08:30am 19.6 15.8 9.8 53 5.4 NE 20 28 11 15 1014.4 1012.2 0.2
22/08:00am 18.3 12.8 9.1 55 4.9 ENE 28 33 15 18 1014.2 1011.9 0.2
22/07:30am 17.0 12.3 9.4 61 4.1 ENE 24 30 13 16 1014.1 1011.8 0.2
22/07:00am 16.1 11.0 9.3 64 3.6 ENE 26 32 14 17 1013.7 1011.4 0.2
22/06:30am 16.2 10.6 8.7 61 3.9 ENE 28 37 15 20 1013.3 1011.0 0.2
22/06:00am 15.3 9.6 9.9 70 2.9 E 30 37 16 20 1012.9 1010.7 0.2
22/05:30am 14.6 9.6 11.0 79 2.0 E 28 35 15 19 1013.1 1010.8 0.2
22/05:00am 14.6 9.8 11.6 82 1.7 E 28 32 15 17 1012.8 1010.6 0.2
22/04:30am 14.7 10.0 12.0 84 1.5 ESE 28 35 15 19 1012.8 1010.6 0.2
22/04:00am 14.0 9.5 12.6 91 0.8 ESE 28 33 15 18 1013.1 1010.8 0.2
22/03:30am 13.6 8.8 13.0 96 0.3 ESE 30 33 16 18 1013.2 1010.9 0.2
22/03:00am 13.5 8.8 13.2 98 0.2 ESE 30 35 16 19 1013.3 1011.0 0.2
22/02:30am 13.3 9.3 13.1 99 0.1 ESE 26 32 14 17 1013.7 1011.4 0.2
22/02:00am 13.3 9.0 13.1 99 0.1 ESE 28 33 15 18 1014.0 1011.7 0.2
22/01:30am 13.5 8.8 13.3 99 0.1 ESE 30 41 16 22 1014.2 1011.9 0.2
22/01:00am 13.7 8.7 13.5 99 0.1 ESE 32 43 17 23 1014.4 1012.2 0.2
22/12:30am 13.6 8.6 13.4 99 0.1 SE 32 44 17 24 1014.3 1012.0 0.2
22/12:00am 13.6 8.5 13.1 97 0.3 SE 32 41 17 22 1014.5 1012.3 0.2
 
Date/Time
CDT
Temp
°C
App
Temp
°C
Dew
Point
°C
Rel
Hum
%
Delta-T
°C
Wind Press
QNH
hPa
Press
MSL
hPa
Rain since
9am
mm
Dir  Spd
km/h
Gust
km/h
Spd
kts
Gust
kts
21/11:30pm 13.9 8.7 12.8 93 0.6 SE 32 43 17 23 1014.5 1012.3 0.2
21/11:00pm 14.0 9.3 13.1 94 0.5 SE 30 39 16 21 1014.7 1012.5 0.2
21/10:30pm 14.3 10.7 12.9 91 0.8 SE 24 37 13 20 1015.1 1012.8 0.2
21/10:00pm 14.9 11.2 12.8 87 1.2 SSE 24 32 13 17 1015.2 1012.9 0.2
21/09:30pm 15.6 11.5 12.7 83 1.6 SSE 26 33 14 18 1014.9 1012.7 0.2
21/09:00pm 16.4 13.0 12.6 78 2.2 SE 22 32 12 17 1014.7 1012.5 0.2
21/08:30pm 17.9 14.9 12.4 70 3.1 SE 20 32 11 17 1014.6 1012.4 0.2
21/08:00pm 21.1 17.0 8.0 43 7.0 E 19 30 10 16 1014.3 1012.0 0.2
21/07:30pm 22.1 17.9 5.9 35 8.4 E 17 24 9 13 1014.1 1011.8 0.2
21/07:00pm 22.8 19.5 6.6 35 8.5 E 13 22 7 12 1013.9 1011.6 0.2
21/06:30pm 23.5 19.5 6.7 34 8.9 E 17 24 9 13 1013.7 1011.4 0.2
21/06:00pm 23.7 19.8 6.9 34 8.9 E 17 24 9 13 1013.6 1011.3 0.2
21/05:30pm 23.9 20.9 6.2 32 9.3 ENE 11 17 6 9 1013.8 1011.5 0.2
21/05:00pm 24.1 20.4 6.4 32 9.3 ENE 15 24 8 13 1014.0 1011.7 0.2
21/04:30pm 23.7 21.0 7.3 35 8.8 ESE 11 19 6 10 1014.2 1011.9 0.2
21/04:00pm 23.7 21.1 7.8 36 8.6 E 11 19 6 10 1014.3 1012.0 0.2
21/03:30pm 23.9 20.9 7.9 36 8.7 E 13 20 7 11 1014.5 1012.3 0.2
21/03:00pm 22.8 19.4 7.8 38 8.1 E 15 24 8 13 1014.8 1012.6 0.2
21/02:30pm 23.2 21.2 10.3 44 7.3 ENE 11 17 6 9 1014.8 1012.6 0.2
21/02:00pm 22.1 19.4 8.9 43 7.2 ENE 13 20 7 11 1015.1 1012.8 0.2
21/01:30pm 21.8 20.0 10.9 50 6.2 ESE 11 17 6 9 1015.1 1012.8 0.2
21/01:00pm 20.0 17.4 9.3 50 5.8 ENE 13 22 7 12 1015.3 1013.0 0.2
21/12:30pm 20.1 17.8 10.5 54 5.3 ENE 13 19 7 10 1015.5 1013.2 0.2
21/12:00pm 19.6 16.4 10.0 54 5.3 ENE 17 24 9 13 1015.5 1013.2 0.2
21/11:30am 18.1 15.1 10.7 62 4.1 ENE 17 24 9 13 1015.5 1013.2 0.0
21/11:00am 16.7 13.0 9.6 63 3.8 E 19 24 10 13 1015.6 1013.3 0.0
21/10:30am 16.1 12.5 9.8 66 3.4 E 19 24 10 13 1015.8 1013.5 0.0
21/10:00am 14.8 10.7 10.0 73 2.6 E 22 28 12 15 1015.9 1013.6 0.0
21/09:30am 14.4 10.8 10.6 78 2.0 E 20 28 11 15 1015.9 1013.6 0.0
21/09:00am 13.2 8.8 10.4 83 1.5 E 24 32 13 17 1015.9 1013.6 0.2
21/08:30am 12.3 7.6 10.5 89 1.0 E 26 35 14 19 1015.6 1013.3 0.2
21/08:00am 11.4 6.7 10.8 96 0.3 E 26 35 14 19 1015.1 1012.8 0.2
21/07:30am 10.4 5.6 10.4 100 0.0 E 26 35 14 19 1014.7 1012.5 0.2
21/07:00am 9.8 4.9 9.8 100 0.0 ESE 26 35 14 19 1014.4 1012.2 0.2
21/06:30am 9.6 4.2 9.6 100 0.0 ESE 28 35 15 19 1013.9 1011.6 0.2
21/06:00am 9.6 4.2 9.6 100 0.0 ESE 28 35 15 19 1013.7 1011.4 0.2
21/05:30am 9.8 4.5 9.8 100 0.0 ESE 28 35 15 19 1013.6 1011.3 0.2
21/05:00am 10.0 5.1 10.0 100 0.0 ESE 26 35 14 19 1013.5 1011.2 0.2
21/04:30am 10.2 5.4 10.2 100 0.0 SE 26 35 14 19 1013.2 1010.9 0.2
21/04:00am 10.0 5.5 9.9 99 0.1 SE 24 33 13 18 1012.9 1010.7 0.2
21/03:30am 10.1 5.6 10.1 100 0.0 SE 24 35 13 19 1012.8 1010.6 0.2
21/03:00am 10.1 5.2 10.0 99 0.1 SE 26 35 14 19 1012.7 1010.5 0.2
21/02:30am 10.1 5.6 10.0 99 0.1 SE 24 35 13 19 1012.8 1010.6 0.2
21/02:00am 10.3 5.8 10.1 99 0.1 SE 24 33 13 18 1012.7 1010.5 0.2
21/01:30am 10.6 5.8 10.4 99 0.1 SE 26 37 14 20 1012.6 1010.3 0.2
21/01:00am 10.4 6.3 10.2 99 0.1 SE 22 32 12 17 1012.8 1010.6 0.2
21/12:30am 10.8 5.7 10.6 99 0.1 SE 28 37 15 20 1012.6 1010.3 0.2
21/12:00am 10.5 6.5 10.3 99 0.1 SE 22 30 12 16 1012.6 1010.3 0.2
 
Date/Time
CDT
Temp
°C
App
Temp
°C
Dew
Point
°C
Rel
Hum
%
Delta-T
°C
Wind Press
QNH
hPa
Press
MSL
hPa
Rain since
9am
mm
Dir  Spd
km/h
Gust
km/h
Spd
kts
Gust
kts
20/11:30pm 10.8 7.2 10.6 99 0.1 SE 20 30 11 16 1012.4 1010.1 0.2
20/11:00pm 11.2 7.4 11.0 99 0.1 SE 22 35 12 19 1012.1 1009.8 0.2
20/10:30pm 11.3 7.8 11.0 98 0.2 SE 20 30 11 16 1011.8 1009.5 0.2
20/10:00pm 11.5 7.2 10.7 95 0.4 SE 24 35 13 19 1011.5 1009.2 0.2
20/09:30pm 12.0 7.3 10.6 91 0.7 SE 26 35 14 19 1011.3 1009.0 0.2
20/09:00pm 12.5 8.0 10.2 86 1.2 SSE 24 33 13 18 1010.9 1008.6 0.2
20/08:30pm 13.1 9.4 10.3 83 1.5 SSE 20 30 11 16 1010.4 1008.1 0.2
20/08:00pm 14.2 10.6 10.0 76 2.2 SSE 19 28 10 15 1010.1 1007.8 0.2
20/07:30pm 14.9 10.4 9.9 72 2.7 SSE 24 35 13 19 1009.9 1007.6 0.2
20/07:00pm 16.3 12.1 9.7 65 3.5 S 22 35 12 19 1009.7 1007.4 0.2
20/06:30pm 17.2 13.2 10.3 64 3.8 SSE 22 33 12 18 1009.4 1007.1 0.2
20/06:00pm 17.7 12.9 10.3 62 4.1 S 26 41 14 22 1009.2 1006.8 0.2
20/05:30pm 18.6 14.7 10.9 61 4.3 SSW 22 32 12 17 1008.9 1006.6 0.2
20/05:00pm 19.3 15.8 12.1 63 4.1 S 22 33 12 18 1009.1 1006.7 0.2
20/04:30pm 18.6 14.9 11.4 63 4.0 SSW 22 32 12 17 1008.7 1006.4 0.2
20/04:00pm 19.3 15.5 11.3 60 4.5 SSW 22 32 12 17 1008.5 1006.2 0.2
20/03:30pm 18.4 14.1 11.9 66 3.7 SSW 26 35 14 19 1008.2 1005.9 0.2
20/03:00pm 18.7 15.1 12.0 65 3.8 S 22 33 12 18 1008.1 1005.8 0.2
20/02:30pm 17.9 13.5 11.7 67 3.5 SSW 26 39 14 21 1008.0 1005.7 0.2
20/02:00pm 18.3 14.5 12.5 69 3.3 S 24 32 13 17 1008.1 1005.8 0.2
20/01:30pm 18.7 15.3 13.6 72 3.0 S 24 37 13 20 1008.1 1005.8 0.0
20/01:00pm 16.5 13.5 12.7 78 2.2 S 20 32 11 17 1008.1 1005.8 0.0
20/12:30pm 16.0 12.4 12.9 82 1.8 SSW 24 35 13 19 1008.0 1005.7 0.0
20/12:00pm 15.3 11.7 13.0 86 1.3 SSW 24 33 13 18 1007.8 1005.5 0.0
20/11:30am 14.4 10.1 13.1 92 0.7 SSW 28 39 15 21 1007.3 1004.9 0.0
20/11:00am 14.2 9.7 13.7 97 0.3 SSW 30 41 16 22 1006.8 1004.5 0.0
20/10:30am 14.5 10.9 14.3 99 0.1 SSW 26 41 14 22 1006.4 1004.1 0.0
20/10:00am 14.3 11.5 14.3 100 0.0 SSW 22 32 12 17 1005.8 1003.4 0.0
20/09:30am 14.2 11.7 14.2 100 0.0 SSW 20 30 11 16 1005.4 1003.0 0.0
20/09:00am 14.3 11.9 14.3 100 0.0 SSW 20 30 11 16 1004.8 1002.5 34.2
20/08:30am 14.7 12.0 14.7 100 0.0 SSW 22 30 12 16 1004.2 1001.8 34.2
20/08:00am 15.5 - - - - WSW 17 24 9 13 1003.6 1001.2 34.2
20/07:30am 15.3 13.2 15.3 100 0.0 WSW 20 33 11 18 1003.0 1000.6 34.2
20/07:00am 15.3 13.2 15.3 100 0.0 WSW 20 30 11 16 1002.3 999.9 34.2
20/06:30am 15.4 12.2 15.4 100 0.0 WSW 26 39 14 21 1001.6 999.2 34.2
20/06:00am 16.0 - - - - WSW 32 50 17 27 1001.1 998.7 34.2
20/05:30am 16.8 - - - - WSW 30 48 16 26 1000.5 998.1 34.2
20/05:00am 17.6 - - - - WSW 28 48 15 26 1000.1 997.7 34.2
20/04:30am 18.2 - - - - W 28 46 15 25 999.7 997.3 34.2
20/04:00am 18.6 - - - - W 28 37 15 20 999.5 997.1 34.2
20/03:30am 18.3 - - - - W 20 28 11 15 999.5 997.1 34.2
20/03:00am 18.9 - - - - WNW 20 26 11 14 999.5 997.1 34.2
20/02:30am 18.0 - - - - NW 9 13 5 7 999.5 997.1 33.6
20/02:00am 16.7 16.5 16.7 100 0.0 S 13 22 7 12 1000.2 997.8 32.6
20/01:30am 18.4 17.6 18.4 100 0.0 SW 20 30 11 16 1000.4 998.0 23.2
20/01:00am 20.9 - - - - W 24 35 13 19 999.7 997.3 21.4
20/12:30am 21.7 - - - - WNW 24 35 13 19 1000.2 997.8 20.4
20/12:00am 21.7 - - - - NW 24 35 13 19 1000.5 998.1 19.8
 
Date/Time
CDT
Temp
°C
App
Temp
°C
Dew
Point
°C
Rel
Hum
%
Delta-T
°C
Wind Press
QNH
hPa
Press
MSL
hPa
Rain since
9am
mm
Dir  Spd
km/h
Gust
km/h
Spd
kts
Gust
kts
19/11:30pm 21.8 - - - - NW 26 41 14 22 1001.2 998.8 19.8
19/11:00pm 21.8 21.1 21.8 100 0.0 NW 28 41 15 22 1001.2 998.8 19.8
19/10:30pm 21.8 21.5 21.8 100 0.0 NNW 26 41 14 22 1002.3 999.9 19.8
19/10:00pm 21.4 22.0 21.4 100 0.0 NNW 20 28 11 15 1002.8 1000.5 19.8
19/09:30pm 21.3 20.7 21.3 100 0.0 NW 26 37 14 20 1002.8 1000.5 17.4
19/09:26pm 21.5 20.6 21.5 100 0.0 NW 28 46 15 25 1003.0 1000.6 16.4
19/09:00pm 21.2 15.6 21.2 100 0.0 W 52 76 28 41 1002.6 1000.3 6.0
19/08:49pm 22.4 18.3 21.9 97 0.3 NNW 46 93 25 50 1002.1 999.7 0.2
19/08:48pm 23.0 19.3 21.8 93 0.8 NNW 44 93 24 50 1001.9 999.5 0.0
19/08:46pm 27.9 24.2 19.1 58 5.8 N 37 93 20 50 1002.1 999.7 0.0
19/08:30pm 29.8 26.1 12.7 35 10.4 NNE 24 37 13 20 1000.0 997.6 0.0
19/08:00pm 29.8 25.2 12.3 34 10.5 NE 28 37 15 20 1000.4 998.0 0.0
19/07:30pm 30.9 26.3 12.3 32 11.2 NE 28 37 15 20 1000.6 998.2 0.0
19/07:00pm 31.4 26.6 11.7 29 11.8 NE 28 39 15 21 1001.1 998.7 0.0
19/06:30pm 31.4 26.1 11.2 29 12.0 ENE 30 44 16 24 1000.8 998.4 0.0
19/06:00pm 31.6 26.9 11.9 30 11.9 ENE 28 35 15 19 1001.4 999.0 0.0
19/05:30pm 30.7 26.6 11.6 31 11.4 ENE 24 33 13 18 1002.1 999.7 0.0
19/05:00pm 32.1 28.3 11.3 28 12.4 ENE 22 30 12 16 1002.7 1000.4 0.0
19/04:30pm 32.1 30.0 12.3 29 12.0 E 15 24 8 13 1003.7 1001.3 0.0
19/04:00pm 31.4 28.6 11.2 29 12.0 E 17 24 9 13 1004.6 1002.3 0.0
19/03:30pm 31.5 29.2 11.8 30 11.8 ENE 15 24 8 13 1005.4 1003.0 0.0
19/03:00pm 30.7 27.0 11.6 31 11.4 ENE 22 30 12 16 1006.1 1003.8 0.0
19/02:30pm 30.7 27.0 10.1 28 12.0 NE 20 28 11 15 1007.0 1004.6 0.0

Latest Capital City Observations: Canberra | Sydney | Melbourne | Brisbane | Adelaide | Perth | Hobart | Darwin

Other Formats:

Comma delimited format used in spreadsheet applications
http://www.bom.gov.au/fwo/IDS60901/IDS60901.94678.axf

JavaScript Object Notation format (JSON) in row-major order
http://www.bom.gov.au/fwo/IDS60901/IDS60901.94678.json